Ramsey, MN

5:05 AM CST on January 27, 2015 (GMT -0600)
River Ridge | Change Station
CLOSE
Current Station
Personal Weather Station
Location: Dayton, MN
Elevation: 900 ft
Nearby Weather Stations

Elev 900 ft 45.21 °N, 93.44 °W | Updated 4 seconds ago

Overcast
Overcast
34.3 °F
Feels Like 34 °F
N
0.0
Wind Variable Wind from NNW
Gusts 3.6 mph

Today
High -- | Low -- °F
--% Chance of Precip.
Yesterday
High -- | Low -- °F
Precip. -- in
7:39 AM 5:13 PM
First Quarter, 53% visible
Pressure 30.10 in
Visibility 10.0 miles
Clouds Overcast 2200 ft
Windchill 34 °F
Dew Point 28 °F
Humidity 77%
Rainfall 0.00 in
Snow Depth Not available.
UV 0 out of 12
Pollen .10 out of 12
Air Quality Not available.
Flu Activity Not available.
METAR KMIC 271053Z AUTO 36003KT 10SM OVC022 01/M04 A3007 RMK AO2 SLP191 T00111039

More Conditions Fewer Conditions

Pressure 30.10 in
Visibility 10.0 miles
Clouds Overcast 2200 ft
Windchill 34 °F
Dew Point 28 °F
Humidity 77%
Rainfall 0.00 in
Snow Depth Not available.
UV 0 out of 12
Pollen .10 out of 12
Air Quality Not available.
Flu Activity Not available.
METAR KMIC 271053Z AUTO 36003KT 10SM OVC022 01/M04 A3007 RMK AO2 SLP191 T00111039

More Conditions Fewer Conditions

10-Day Weather Forecast

Almanac

Astronomy

Jan. 27, 2015 Rise Set
Actual Time
Civil Twilight
Nautical Twilight
Astronomical Twilight
Moon
Length of Visible Light
Length of Day
Tomorrow will be .
, % of the Moon is Illuminated

Today's Extremes

State Highs State Lows

Community

WunderPhotos

Upload Photos

1,790,564 photos uploaded!

WunderBlogs® & News

Nearby

Air Quality

  Air Quality AQ Index Pollutant
Not available.

Snow Depth

Station Depth Elevation

Earthquake Activity

City Distance Mag. Time & Date
Minimum magnitude displayed is 2.5.

Coastal Water Temperatures

Place Temperature

Nearby Weather Stations